createdAt,value
2016-03-09T00:00:15.503Z,1005.17
2016-03-09T00:01:15.490Z,1005.15
2016-03-09T00:02:15.461Z,1005.14
2016-03-09T00:03:15.448Z,1005.1
2016-03-09T00:04:15.420Z,1005.03
2016-03-09T00:05:15.391Z,1005.03
2016-03-09T00:06:15.363Z,1005
2016-03-09T00:07:15.334Z,1005.04
2016-03-09T00:08:15.321Z,1005.01
2016-03-09T00:09:15.293Z,1004.99
2016-03-09T00:10:15.280Z,1004.98
2016-03-09T00:11:15.251Z,1004.98
2016-03-09T00:12:15.223Z,1004.93
2016-03-09T00:13:15.194Z,1004.94
2016-03-09T00:14:15.181Z,1004.92
2016-03-09T00:15:15.152Z,1004.89
2016-03-09T00:16:15.124Z,1004.89
2016-03-09T00:17:15.095Z,1004.89
2016-03-09T00:18:15.082Z,1004.88
2016-03-09T00:19:15.054Z,1004.85
2016-03-09T00:20:15.025Z,1004.86
2016-03-09T00:21:15.012Z,1004.86
2016-03-09T00:22:14.983Z,1004.84
2016-03-09T00:23:14.955Z,1004.87
2016-03-09T00:24:14.942Z,1004.83
2016-03-09T00:25:14.914Z,1004.86
2016-03-09T00:26:14.901Z,1004.82
2016-03-09T00:27:14.872Z,1004.82
2016-03-09T00:28:14.844Z,1004.81
2016-03-09T00:29:14.831Z,1004.83
2016-03-09T00:30:14.802Z,1004.82
2016-03-09T00:31:14.764Z,1004.73
2016-03-09T00:32:14.751Z,1004.76
2016-03-09T00:33:14.723Z,1004.73
2016-03-09T00:34:14.694Z,1004.75
2016-03-09T00:35:14.681Z,1004.73
2016-03-09T00:36:14.668Z,1004.72
2016-03-09T00:37:14.624Z,1004.66
2016-03-09T00:38:14.611Z,1004.71
2016-03-09T00:39:14.755Z,1004.67
2016-03-09T00:40:14.553Z,1004.69
2016-03-09T00:41:14.525Z,1004.7
2016-03-09T00:42:14.513Z,1004.72
2016-03-09T00:43:14.483Z,1004.69
2016-03-09T00:44:14.471Z,1004.71
2016-03-09T00:45:14.442Z,1004.74
2016-03-09T00:46:14.413Z,1004.72
2016-03-09T00:47:14.385Z,1004.72
2016-03-09T00:48:14.418Z,1004.7
2016-03-09T00:49:14.344Z,1004.68
2016-03-09T00:50:14.330Z,1004.66
2016-03-09T00:51:14.302Z,1004.65
2016-03-09T00:52:14.273Z,1004.65
2016-03-09T00:53:14.260Z,1004.65
2016-03-09T00:54:14.232Z,1004.66
2016-03-09T00:55:14.204Z,1004.65
2016-03-09T00:56:14.175Z,1004.61
2016-03-09T00:57:14.146Z,1004.63
2016-03-09T00:58:14.134Z,1004.6
2016-03-09T00:59:14.104Z,1004.57
2016-03-09T01:00:14.076Z,1004.58
2016-03-09T01:01:14.048Z,1004.54
2016-03-09T01:02:14.034Z,1004.52
2016-03-09T01:03:14.006Z,1004.52
2016-03-09T01:04:13.978Z,1004.49
2016-03-09T01:05:13.965Z,1004.48
2016-03-09T01:06:13.940Z,1004.48
2016-03-09T01:07:13.901Z,1004.39
2016-03-09T01:08:13.887Z,1004.42
2016-03-09T01:09:13.875Z,1004.4
2016-03-09T01:10:13.846Z,1004.39
2016-03-09T01:11:13.818Z,1004.38
2016-03-09T01:12:13.789Z,1004.33
2016-03-09T01:13:13.761Z,1004.31
2016-03-09T01:14:13.748Z,1004.29
2016-03-09T01:15:13.719Z,1004.21
2016-03-09T01:16:13.690Z,1004.23
2016-03-09T01:17:13.678Z,1004.22
2016-03-09T01:18:13.649Z,1004.22
2016-03-09T01:19:13.620Z,1004.2
2016-03-09T01:20:13.591Z,1004.16
2016-03-09T01:21:13.579Z,1004.21
2016-03-09T01:22:13.550Z,1004.2
2016-03-09T01:23:13.522Z,1004.18
2016-03-09T01:24:13.509Z,1004.17
2016-03-09T01:25:13.480Z,1004.15
2016-03-09T01:26:13.467Z,1004.18
2016-03-09T01:27:13.439Z,1004.16
2016-03-09T01:28:13.410Z,1004.14
2016-03-09T01:29:13.382Z,1004.11
2016-03-09T01:30:13.352Z,1004.12
2016-03-09T01:31:13.325Z,1004.1
2016-03-09T01:32:13.312Z,1004.13
2016-03-09T01:33:13.283Z,1004.11
2016-03-09T01:34:13.255Z,1004.12
2016-03-09T01:35:13.241Z,1004.1
2016-03-09T01:36:13.338Z,1004.07
2016-03-09T01:37:13.185Z,1004.06
2016-03-09T01:38:13.171Z,1004.07
2016-03-09T01:39:13.142Z,1004.02
2016-03-09T01:40:13.129Z,1004.03
2016-03-09T01:41:13.086Z,1003.98
2016-03-09T01:42:13.073Z,1003.95
2016-03-09T01:43:13.045Z,1004
2016-03-09T01:44:13.015Z,1003.93
2016-03-09T01:45:13.003Z,1003.94
2016-03-09T01:46:12.974Z,1003.89
2016-03-09T01:47:12.946Z,1003.91
2016-03-09T01:48:12.948Z,1003.88
2016-03-09T01:49:12.903Z,1003.88
2016-03-09T01:50:12.875Z,1003.85
2016-03-09T01:51:12.847Z,1003.87
2016-03-09T01:52:12.819Z,1003.81
2016-03-09T01:53:12.822Z,1003.76
2016-03-09T01:54:12.777Z,1003.75
2016-03-09T01:55:12.749Z,1003.77
2016-03-09T01:56:12.719Z,1003.77
2016-03-09T01:57:12.708Z,1003.71
2016-03-09T01:58:12.676Z,1003.7
2016-03-09T01:59:12.723Z,1003.7
2016-03-09T02:00:12.637Z,1003.67
2016-03-09T02:01:13.697Z,1003.65
2016-03-09T02:02:12.574Z,1003.63
2016-03-09T02:03:12.545Z,1003.59
2016-03-09T02:04:12.517Z,1003.59
2016-03-09T02:05:12.488Z,1003.54
2016-03-09T02:06:12.480Z,1003.53
2016-03-09T02:07:12.452Z,1003.54
2016-03-09T02:08:12.423Z,1003.49
2016-03-09T02:09:12.393Z,1003.5
2016-03-09T02:10:12.387Z,1003.54
2016-03-09T02:11:12.377Z,1003.48
2016-03-09T02:12:12.334Z,1003.51
2016-03-09T02:13:12.305Z,1003.49
2016-03-09T02:14:12.277Z,1003.45
2016-03-09T02:15:12.249Z,1003.44
2016-03-09T02:16:12.220Z,1003.46
2016-03-09T02:17:12.208Z,1003.37
2016-03-09T02:18:12.179Z,1003.36
2016-03-09T02:19:12.150Z,1003.35
2016-03-09T02:20:12.121Z,1003.36
2016-03-09T02:21:12.109Z,1003.33
2016-03-09T02:22:12.112Z,1003.32
2016-03-09T02:23:12.051Z,1003.27
2016-03-09T02:24:12.038Z,1003.3
2016-03-09T02:25:12.010Z,1003.26
2016-03-09T02:26:11.981Z,1003.2
2016-03-09T02:27:11.953Z,1003.19
2016-03-09T02:28:11.940Z,1003.24
2016-03-09T02:29:11.911Z,1003.21
2016-03-09T02:30:11.883Z,1003.14
2016-03-09T02:31:11.870Z,1003.15
2016-03-09T02:32:11.842Z,1003.13
2016-03-09T02:33:12.109Z,1003.13
2016-03-09T02:34:11.783Z,1003.12
2016-03-09T02:35:11.772Z,1003.1
2016-03-09T02:36:11.742Z,1003.09
2016-03-09T02:37:11.714Z,1003.08
2016-03-09T02:38:11.686Z,1003.03
2016-03-09T02:39:11.672Z,1003.07
2016-03-09T02:40:11.644Z,1003.05
2016-03-09T02:41:11.615Z,1003.04
2016-03-09T02:42:11.587Z,1003.05
2016-03-09T02:43:11.574Z,1003.06
2016-03-09T02:44:11.545Z,1003
2016-03-09T02:45:11.533Z,1003.02
2016-03-09T02:46:11.504Z,1003.01
2016-03-09T02:47:11.475Z,1002.93
2016-03-09T02:48:11.447Z,1002.92
2016-03-09T02:49:11.418Z,1002.9
2016-03-09T02:50:11.390Z,1002.9
2016-03-09T02:51:11.376Z,1002.84
2016-03-09T02:52:11.349Z,1002.88
2016-03-09T02:53:11.320Z,1002.87
2016-03-09T02:54:11.306Z,1002.86
2016-03-09T02:55:11.278Z,1002.85
2016-03-09T02:56:11.249Z,1002.91
2016-03-09T02:57:11.220Z,1002.83
2016-03-09T02:58:11.209Z,1002.87
2016-03-09T02:59:11.195Z,1002.87
2016-03-09T03:00:11.151Z,1002.87
2016-03-09T03:01:11.137Z,1002.79
2016-03-09T03:02:11.094Z,1002.8
2016-03-09T03:03:11.081Z,1002.79
2016-03-09T03:04:11.052Z,1002.78
2016-03-09T03:05:11.039Z,1002.77
2016-03-09T03:06:11.011Z,1002.77
2016-03-09T03:07:10.982Z,1002.71
2016-03-09T03:08:10.953Z,1002.72
2016-03-09T03:09:10.925Z,1002.72
2016-03-09T03:10:10.912Z,1002.69
2016-03-09T03:11:10.883Z,1002.67
2016-03-09T03:12:10.855Z,1002.65
2016-03-09T03:13:10.827Z,1002.62
2016-03-09T03:14:10.813Z,1002.62
2016-03-09T03:15:10.785Z,1002.61
2016-03-09T03:16:10.757Z,1002.6
2016-03-09T03:17:10.775Z,1002.59
2016-03-09T03:18:10.715Z,1002.6
2016-03-09T03:19:10.686Z,1002.6
2016-03-09T03:20:10.658Z,1002.55
2016-03-09T03:21:10.629Z,1002.52
2016-03-09T03:22:10.616Z,1002.56
2016-03-09T03:23:10.588Z,1002.51
2016-03-09T03:24:10.559Z,1002.45
2016-03-09T03:25:10.531Z,1002.46
2016-03-09T03:26:10.501Z,1002.44
2016-03-09T03:27:10.490Z,1002.49
2016-03-09T03:28:10.460Z,1002.5
2016-03-09T03:29:10.447Z,1002.45
2016-03-09T03:30:10.653Z,1002.39
2016-03-09T03:31:10.390Z,1002.35
2016-03-09T03:32:10.361Z,1002.34
2016-03-09T03:33:10.334Z,1002.32
2016-03-09T03:34:10.320Z,1002.31
2016-03-09T03:35:10.292Z,1002.27
2016-03-09T03:36:10.263Z,1002.26
2016-03-09T03:37:10.234Z,1002.28
2016-03-09T03:38:10.222Z,1002.23
2016-03-09T03:39:10.193Z,1002.19
2016-03-09T03:40:10.165Z,1002.19
2016-03-09T03:41:10.136Z,1002.2
2016-03-09T03:42:10.108Z,1002.15
2016-03-09T03:43:10.094Z,1002.14
2016-03-09T03:44:10.066Z,1002.12
2016-03-09T03:45:10.038Z,1002.14
2016-03-09T03:46:10.024Z,1002.09
2016-03-09T03:47:09.996Z,1002.1
2016-03-09T03:48:09.968Z,1002.07
2016-03-09T03:49:09.938Z,1002.08
2016-03-09T03:50:09.911Z,1002.03
2016-03-09T03:51:09.897Z,1001.97
2016-03-09T03:52:09.869Z,1002
2016-03-09T03:53:09.840Z,1001.95
2016-03-09T03:54:09.827Z,1001.89
2016-03-09T03:55:09.783Z,1001.91
2016-03-09T03:56:09.770Z,1001.91
2016-03-09T03:57:09.742Z,1001.88
2016-03-09T03:58:09.713Z,1001.91
2016-03-09T03:59:09.685Z,1001.88
2016-03-09T04:00:09.671Z,1001.9
2016-03-09T04:01:09.643Z,1001.89
2016-03-09T04:02:09.630Z,1001.86
2016-03-09T04:03:09.601Z,1001.88
2016-03-09T04:04:09.572Z,1001.89
2016-03-09T04:05:09.545Z,1001.86
2016-03-09T04:06:09.516Z,1001.93
2016-03-09T04:07:09.503Z,1001.84
2016-03-09T04:08:09.521Z,1001.83
2016-03-09T04:09:09.445Z,1001.88
2016-03-09T04:10:09.417Z,1001.85
2016-03-09T04:11:09.388Z,1001.81
2016-03-09T04:12:09.376Z,1001.76
2016-03-09T04:13:09.347Z,1001.72
2016-03-09T04:14:09.318Z,1001.75
2016-03-09T04:15:09.290Z,1001.75
2016-03-09T04:16:09.277Z,1001.74
2016-03-09T04:17:09.249Z,1001.77
2016-03-09T04:18:09.219Z,1001.8
2016-03-09T04:19:09.191Z,1001.76
2016-03-09T04:20:09.179Z,1001.77
2016-03-09T04:21:09.149Z,1001.75
2016-03-09T04:22:09.122Z,1001.73
2016-03-09T04:23:09.093Z,1001.7
2016-03-09T04:24:09.080Z,1001.72
2016-03-09T04:25:09.051Z,1001.71
2016-03-09T04:26:09.070Z,1001.71
2016-03-09T04:27:09.010Z,1001.65
2016-03-09T04:28:08.974Z,1001.69
2016-03-09T04:29:08.933Z,1001.69
2016-03-09T04:30:08.892Z,1001.66
2016-03-09T04:31:08.852Z,1001.64
2016-03-09T04:32:08.812Z,1001.65
2016-03-09T04:33:08.792Z,1001.6
2016-03-09T04:34:08.759Z,1001.61
2016-03-09T04:35:08.727Z,1001.62
2016-03-09T04:36:08.709Z,1001.58
2016-03-09T04:37:08.677Z,1001.58
2016-03-09T04:38:08.646Z,1001.65
2016-03-09T04:39:08.615Z,1001.56
2016-03-09T04:40:08.585Z,1001.57
2016-03-09T04:41:08.571Z,1001.54
2016-03-09T04:42:08.541Z,1001.64
2016-03-09T04:43:08.511Z,1001.58
2016-03-09T04:44:08.482Z,1001.58
2016-03-09T04:45:08.468Z,1001.6
2016-03-09T04:46:08.439Z,1001.55
2016-03-09T04:49:15.164Z,1001.6
2016-03-09T04:50:15.134Z,1001.56
2016-03-09T04:51:15.106Z,1001.54
2016-03-09T04:52:15.077Z,1001.55
2016-03-09T04:53:15.063Z,1001.51
2016-03-09T04:54:15.035Z,1001.52
2016-03-09T04:55:15.007Z,1001.53
2016-03-09T04:56:14.978Z,1001.54
2016-03-09T04:58:14.921Z,1001.52
2016-03-09T04:59:14.892Z,1001.51
2016-03-09T05:00:14.880Z,1001.46
2016-03-09T05:01:14.851Z,1001.52
2016-03-09T05:02:14.838Z,1001.49
2016-03-09T05:03:14.794Z,1001.49
2016-03-09T05:04:14.765Z,1001.43
2016-03-09T05:05:14.737Z,1001.43
2016-03-09T05:06:14.713Z,1001.41
2016-03-09T05:07:14.685Z,1001.39
2016-03-09T05:08:14.657Z,1001.39
2016-03-09T05:09:14.643Z,1001.42
2016-03-09T05:10:14.616Z,1001.39
2016-03-09T05:11:14.602Z,1001.34
2016-03-09T05:12:14.574Z,1001.34
2016-03-09T05:13:14.546Z,1001.37
2016-03-09T05:14:14.517Z,1001.32
2016-03-09T05:15:14.488Z,1001.28
2016-03-09T05:16:14.475Z,1001.3
2016-03-09T05:17:14.447Z,1001.22
2016-03-09T05:18:14.434Z,1001.22
2016-03-09T05:19:14.390Z,1001.2
2016-03-09T05:20:14.376Z,1001.2
2016-03-09T05:21:14.348Z,1001.18
2016-03-09T05:22:14.320Z,1001.15
2016-03-09T05:23:14.291Z,1001.13
2016-03-09T05:24:14.262Z,1001.12
2016-03-09T05:25:14.249Z,1001.11
2016-03-09T05:26:14.221Z,1001.05
2016-03-09T05:27:14.192Z,1001.08
2016-03-09T05:28:14.164Z,1001.08
2016-03-09T05:29:14.136Z,1001.09
2016-03-09T05:30:14.108Z,1001.03
2016-03-09T05:31:14.078Z,1001.03
2016-03-09T05:32:14.066Z,1001.01
2016-03-09T05:33:14.036Z,1001.01
2016-03-09T05:34:14.008Z,1001.02
2016-03-09T05:35:13.996Z,1001
2016-03-09T05:36:13.966Z,1000.98
2016-03-09T05:37:13.938Z,1000.99
2016-03-09T05:38:13.909Z,1000.97
2016-03-09T05:39:13.897Z,1000.98
2016-03-09T05:40:13.869Z,1000.97
2016-03-09T05:41:13.840Z,1000.98
2016-03-09T05:42:13.827Z,1000.95
2016-03-09T05:43:13.783Z,1000.99
2016-03-09T05:44:13.770Z,1000.92
2016-03-09T05:45:13.741Z,1000.94
2016-03-09T05:46:13.712Z,1000.87
2016-03-09T05:47:13.684Z,1000.91
2016-03-09T05:48:13.670Z,1000.84
2016-03-09T05:49:13.639Z,1000.88
2016-03-09T05:50:13.626Z,1000.85
2016-03-09T05:51:13.583Z,1000.86
2016-03-09T05:52:13.554Z,1000.91
2016-03-09T05:53:13.541Z,1000.89
2016-03-09T05:54:13.512Z,1000.86
2016-03-09T05:55:13.484Z,1000.87
2016-03-09T05:56:13.470Z,1000.85
2016-03-09T05:57:13.442Z,1000.86
2016-03-09T05:58:13.414Z,1000.86
2016-03-09T05:59:13.386Z,1000.87
2016-03-09T06:00:13.357Z,1000.89
2016-03-09T06:01:13.329Z,1000.89
2016-03-09T06:02:13.316Z,1000.85
2016-03-09T06:03:13.286Z,1000.9
2016-03-09T06:04:13.259Z,1000.89
2016-03-09T06:05:13.231Z,1000.9
2016-03-09T06:06:13.202Z,1000.87
2016-03-09T06:07:13.205Z,1000.87
2016-03-09T06:08:13.160Z,1000.87
2016-03-09T06:09:13.147Z,1000.84
2016-03-09T06:10:13.103Z,1000.84
2016-03-09T06:11:13.091Z,1000.85
2016-03-09T06:12:13.062Z,1000.82
2016-03-09T06:13:13.033Z,1000.79
2016-03-09T06:14:13.005Z,1000.79
2016-03-09T06:15:12.991Z,1000.79
2016-03-09T06:16:12.963Z,1000.76
2016-03-09T06:17:12.934Z,1000.79
2016-03-09T06:18:12.906Z,1000.78
2016-03-09T06:19:12.893Z,1000.8
2016-03-09T06:20:12.865Z,1000.79
2016-03-09T06:21:12.836Z,1000.79
2016-03-09T06:22:12.807Z,1000.77
2016-03-09T06:23:12.779Z,1000.75
2016-03-09T06:24:12.765Z,1000.77
2016-03-09T06:25:12.737Z,1000.74
2016-03-09T06:26:12.709Z,1000.7
2016-03-09T06:27:12.680Z,1000.68
2016-03-09T06:28:12.652Z,1000.75
2016-03-09T06:29:12.639Z,1000.72
2016-03-09T06:30:12.610Z,1000.74
2016-03-09T06:31:12.581Z,1000.72
2016-03-09T06:32:12.740Z,1000.67
2016-03-09T06:33:12.555Z,1000.7
2016-03-09T06:34:12.512Z,1000.68
2016-03-09T06:35:12.499Z,1000.67
2016-03-09T06:36:12.454Z,1000.67
2016-03-09T06:37:12.457Z,1000.65
2016-03-09T06:38:12.397Z,1000.65
2016-03-09T06:39:12.384Z,1000.65
2016-03-09T06:40:12.355Z,1000.61
2016-03-09T06:41:12.327Z,1000.61
2016-03-09T06:42:12.299Z,1000.61
2016-03-09T06:43:12.286Z,1000.65
2016-03-09T06:44:12.258Z,1000.61
2016-03-09T06:45:12.228Z,1000.65
2016-03-09T06:46:12.200Z,1000.63
2016-03-09T06:47:12.171Z,1000.62
2016-03-09T06:48:12.158Z,1000.62
2016-03-09T06:49:12.129Z,1000.59
2016-03-09T06:50:12.102Z,1000.62
2016-03-09T06:51:12.074Z,1000.63
2016-03-09T06:52:12.044Z,1000.63
2016-03-09T06:53:12.032Z,1000.64
2016-03-09T06:54:12.002Z,1000.57
2016-03-09T06:55:11.990Z,1000.56
2016-03-09T06:56:11.945Z,1000.59
2016-03-09T06:57:11.932Z,1000.54
2016-03-09T06:58:11.905Z,1000.56
2016-03-09T06:59:11.876Z,1000.5
2016-03-09T07:00:11.848Z,1000.47
2016-03-09T07:01:11.818Z,1000.54
2016-03-09T07:02:11.789Z,1000.48
2016-03-09T07:03:11.776Z,1000.47
2016-03-09T07:04:11.749Z,1000.45
2016-03-09T07:05:11.720Z,1000.46
2016-03-09T07:06:11.707Z,1000.43
2016-03-09T07:07:11.678Z,1000.37
2016-03-09T07:08:11.650Z,1000.42
2016-03-09T07:09:11.621Z,1000.38
2016-03-09T07:10:11.592Z,1000.43
2016-03-09T07:11:11.565Z,1000.41
2016-03-09T07:12:11.551Z,1000.35
2016-03-09T07:13:11.523Z,1000.35
2016-03-09T07:14:11.494Z,1000.38
2016-03-09T07:15:11.481Z,1000.38
2016-03-09T07:16:11.452Z,1000.29
2016-03-09T07:17:11.424Z,1000.33
2016-03-09T07:18:11.395Z,1000.36
2016-03-09T07:19:11.367Z,1000.33
2016-03-09T07:20:11.339Z,1000.34
2016-03-09T07:21:11.325Z,1000.38
2016-03-09T07:22:11.297Z,1000.39
2016-03-09T07:23:11.284Z,1000.39
2016-03-09T07:24:11.255Z,1000.37
2016-03-09T07:25:11.226Z,1000.37
2016-03-09T07:26:11.198Z,1000.41
2016-03-09T07:27:11.171Z,1000.37
2016-03-09T07:28:11.141Z,1000.38
2016-03-09T07:29:11.129Z,1000.34
2016-03-09T07:30:11.099Z,1000.36
2016-03-09T07:31:11.071Z,1000.34
2016-03-09T07:32:11.043Z,1000.31
2016-03-09T07:33:11.029Z,1000.32
2016-03-09T07:34:11.001Z,1000.31
2016-03-09T07:35:10.988Z,1000.34
2016-03-09T07:36:10.944Z,1000.33
2016-03-09T07:37:10.915Z,1000.31
2016-03-09T07:38:10.902Z,1000.3
2016-03-09T07:39:10.873Z,1000.38
2016-03-09T07:40:10.846Z,1000.32
2016-03-09T07:41:10.817Z,1000.29
2016-03-09T07:42:10.788Z,1000.27
2016-03-09T07:43:10.775Z,1000.25
2016-03-09T07:44:10.746Z,1000.25
2016-03-09T07:45:10.719Z,1000.27
2016-03-09T07:46:10.705Z,1000.23
2016-03-09T07:47:10.677Z,1000.23
2016-03-09T07:48:10.648Z,1000.21
2016-03-09T07:49:10.619Z,1000.24
2016-03-09T07:50:10.591Z,1000.19
2016-03-09T07:51:10.563Z,1000.15
2016-03-09T07:52:10.566Z,1000.12
2016-03-09T07:53:10.521Z,1000.08
2016-03-09T07:54:10.493Z,1000.17
2016-03-09T07:55:10.479Z,1000.13
2016-03-09T07:56:10.451Z,1000.1
2016-03-09T07:57:10.422Z,1000.14
2016-03-09T07:58:10.410Z,1000.18
2016-03-09T07:59:10.365Z,1000.12
2016-03-09T08:00:10.352Z,1000.09
2016-03-09T08:01:10.323Z,1000.12
2016-03-09T08:02:10.295Z,1000.09
2016-03-09T08:03:10.267Z,1000.07
2016-03-09T08:04:10.238Z,1000.09
2016-03-09T08:05:10.225Z,1000.03
2016-03-09T08:06:10.196Z,1000.08
2016-03-09T08:07:10.168Z,1000.05
2016-03-09T08:08:10.155Z,1000.09
2016-03-09T08:09:10.126Z,1000.05
2016-03-09T08:10:10.098Z,1000.07
2016-03-09T08:11:10.069Z,1000.06
2016-03-09T08:12:10.041Z,1000.02
2016-03-09T08:13:10.028Z,1000.04
2016-03-09T08:14:09.999Z,1000.03
2016-03-09T08:15:09.970Z,1000.01
2016-03-09T08:16:09.958Z,1000.07
2016-03-09T08:17:09.914Z,1000
2016-03-09T08:18:09.900Z,1000
2016-03-09T08:19:09.872Z,1000
2016-03-09T08:20:09.843Z,999.97
2016-03-09T08:21:09.830Z,999.96
2016-03-09T08:22:09.802Z,999.94
2016-03-09T08:23:09.774Z,1000.04
2016-03-09T08:24:09.744Z,999.97
2016-03-09T08:25:09.826Z,999.89
2016-03-09T08:26:09.688Z,1000.03
2016-03-09T08:27:09.674Z,999.99
2016-03-09T08:28:09.677Z,999.91
2016-03-09T08:29:09.618Z,999.93
2016-03-09T08:30:09.589Z,999.86
2016-03-09T08:31:09.576Z,999.9
2016-03-09T08:32:09.548Z,999.85
2016-03-09T08:33:09.519Z,999.88
2016-03-09T08:34:09.490Z,999.82
2016-03-09T08:35:09.478Z,999.83
2016-03-09T08:36:09.448Z,999.86
2016-03-09T08:37:09.420Z,999.84
2016-03-09T08:38:09.393Z,999.82
2016-03-09T08:39:09.379Z,999.79
2016-03-09T08:40:09.350Z,999.76
2016-03-09T08:41:09.322Z,999.79
2016-03-09T08:42:09.292Z,999.8
2016-03-09T08:43:09.265Z,999.76
2016-03-09T08:44:09.253Z,999.73
2016-03-09T08:45:09.223Z,999.67
2016-03-09T08:46:09.194Z,999.64
2016-03-09T08:47:09.166Z,999.64
2016-03-09T08:48:09.153Z,999.68
2016-03-09T08:49:09.125Z,999.65
2016-03-09T08:50:09.097Z,999.64
2016-03-09T08:51:09.067Z,999.63
2016-03-09T08:52:09.039Z,999.57
2016-03-09T08:53:09.027Z,999.64
2016-03-09T08:54:08.997Z,999.55
2016-03-09T08:55:08.969Z,999.58
2016-03-09T08:56:08.940Z,999.57
2016-03-09T08:57:08.927Z,999.48
2016-03-09T08:58:08.899Z,999.5
2016-03-09T08:59:08.870Z,999.55
2016-03-09T09:00:08.841Z,999.53
2016-03-09T09:01:08.829Z,999.53
2016-03-09T09:02:08.801Z,999.46
2016-03-09T09:03:08.771Z,999.38
2016-03-09T09:04:08.759Z,999.41
2016-03-09T09:05:08.745Z,999.47
2016-03-09T09:06:08.702Z,999.51
2016-03-09T09:07:08.673Z,999.43
2016-03-09T09:08:08.645Z,999.43
2016-03-09T09:09:08.615Z,999.41
2016-03-09T09:10:08.603Z,999.45
2016-03-09T09:11:08.575Z,999.33
2016-03-09T09:12:08.546Z,999.36
2016-03-09T09:13:08.549Z,999.33
2016-03-09T09:14:08.504Z,999.27
2016-03-09T09:15:08.476Z,999.35
2016-03-09T09:16:08.448Z,999.29
2016-03-09T09:17:08.434Z,999.24
2016-03-09T09:18:08.406Z,999.36
2016-03-09T09:19:08.377Z,999.37
2016-03-09T09:20:08.349Z,999.4
2016-03-09T09:21:08.320Z,999.36
2016-03-09T09:22:08.557Z,999.41
2016-03-09T09:23:08.278Z,999.34
2016-03-09T09:24:08.250Z,999.32
2016-03-09T09:25:08.221Z,999.34
2016-03-09T09:26:08.208Z,999.29
2016-03-09T09:27:08.180Z,999.44
2016-03-09T09:28:08.152Z,999.39
2016-03-09T09:29:08.138Z,999.35
2016-03-09T09:30:08.110Z,999.29
2016-03-09T09:31:08.081Z,999.27
2016-03-09T09:32:08.069Z,999.23
2016-03-09T09:33:08.040Z,999.26
2016-03-09T09:34:08.012Z,999.18
2016-03-09T09:35:07.982Z,999.28
2016-03-09T09:36:07.954Z,999.28
2016-03-09T09:37:07.926Z,999.28
2016-03-09T09:38:07.913Z,999.25
2016-03-09T09:39:07.884Z,999.18
2016-03-09T09:40:07.856Z,999.16
2016-03-09T09:41:07.827Z,999.13
2016-03-09T09:42:07.814Z,999.18
2016-03-09T09:43:07.786Z,999.14
2016-03-09T09:44:07.757Z,999.09
2016-03-09T09:45:07.729Z,999.11
2016-03-09T09:46:07.715Z,999.04
2016-03-09T09:47:07.687Z,999.05
2016-03-09T09:48:07.658Z,999.09
2016-03-09T09:49:07.630Z,999.08
2016-03-09T09:50:07.601Z,998.99
2016-03-09T09:51:07.588Z,998.97
2016-03-09T09:52:07.561Z,999.04
2016-03-09T09:53:07.531Z,999.06
2016-03-09T09:54:07.519Z,999.01
2016-03-09T09:55:07.489Z,999.07
2016-03-09T09:56:07.461Z,998.95
2016-03-09T09:57:07.433Z,999.01
2016-03-09T09:58:07.419Z,998.88
2016-03-09T09:59:07.391Z,998.94
2016-03-09T10:00:07.362Z,998.9
2016-03-09T10:01:07.335Z,998.92
2016-03-09T10:02:07.321Z,998.86
2016-03-09T10:03:07.293Z,998.86
2016-03-09T10:04:07.264Z,998.86
2016-03-09T10:05:07.235Z,998.86
2016-03-09T10:06:07.223Z,998.87
2016-03-09T10:07:07.184Z,998.84
2016-03-09T10:08:07.172Z,998.8
2016-03-09T10:09:07.159Z,998.79
2016-03-09T10:10:07.114Z,998.86
2016-03-09T10:11:07.086Z,998.78
2016-03-09T10:12:07.058Z,998.79
2016-03-09T10:13:07.045Z,998.79
2016-03-09T10:14:07.016Z,998.8
2016-03-09T10:15:07.003Z,998.68
2016-03-09T10:16:06.960Z,998.74
2016-03-09T10:17:06.947Z,998.81
2016-03-09T10:18:06.918Z,998.77
2016-03-09T10:19:06.904Z,998.68
2016-03-09T10:20:06.876Z,998.69
2016-03-09T10:21:06.848Z,998.74
2016-03-09T10:22:06.819Z,998.71
2016-03-09T10:23:06.806Z,998.6
2016-03-09T10:24:06.794Z,998.68
2016-03-09T10:25:06.780Z,998.68
2016-03-09T10:26:06.782Z,998.68
2016-03-09T10:27:06.723Z,998.67
2016-03-09T10:28:06.679Z,998.72
2016-03-09T10:29:06.666Z,998.63
2016-03-09T10:30:06.653Z,998.59
2016-03-09T10:31:06.687Z,998.63
2016-03-09T10:32:06.674Z,998.63
2016-03-09T10:33:06.567Z,998.61
2016-03-09T10:34:06.601Z,998.62
2016-03-09T10:35:06.495Z,998.69
2016-03-09T10:36:06.481Z,998.67
2016-03-09T10:37:06.453Z,998.71
2016-03-09T10:38:06.424Z,998.64
2016-03-09T10:39:06.412Z,998.63
2016-03-09T10:40:06.399Z,998.62
2016-03-09T10:41:06.355Z,998.63
2016-03-09T10:42:06.341Z,998.64
2016-03-09T10:43:06.313Z,998.72
2016-03-09T10:44:06.285Z,998.59
2016-03-09T10:45:06.271Z,998.64
2016-03-09T10:46:06.244Z,998.54
2016-03-09T10:47:06.214Z,998.58
2016-03-09T10:48:06.186Z,998.52
2016-03-09T10:49:06.173Z,998.52
2016-03-09T10:50:06.144Z,998.54
2016-03-09T10:51:06.116Z,998.5
2016-03-09T10:52:06.102Z,998.49
2016-03-09T10:53:06.074Z,998.54
2016-03-09T10:54:06.045Z,998.62
2016-03-09T10:55:06.018Z,998.54
2016-03-09T10:56:05.988Z,998.45
2016-03-09T10:57:05.960Z,998.44
2016-03-09T10:58:05.948Z,998.41
2016-03-09T10:59:05.919Z,998.48
2016-03-09T11:00:05.890Z,998.52
2016-03-09T11:01:05.876Z,998.34
2016-03-09T11:02:05.865Z,998.37
2016-03-09T11:03:05.820Z,998.41
2016-03-09T11:04:05.792Z,998.41
2016-03-09T11:05:05.778Z,998.53
2016-03-09T11:06:05.750Z,998.43
2016-03-09T11:07:05.737Z,998.42
2016-03-09T11:08:05.708Z,998.39
2016-03-09T11:09:05.680Z,998.4
2016-03-09T11:10:05.683Z,998.35
2016-03-09T11:11:05.639Z,998.36
2016-03-09T11:12:05.610Z,998.39
2016-03-09T11:13:05.581Z,998.42
2016-03-09T11:14:05.553Z,998.44
2016-03-09T11:15:05.602Z,998.39
2016-03-09T11:16:05.511Z,998.38
2016-03-09T11:17:05.482Z,998.38
2016-03-09T11:18:05.501Z,998.36
2016-03-09T11:19:05.441Z,998.35
2016-03-09T11:20:05.428Z,998.3
2016-03-09T11:21:05.385Z,998.3
2016-03-09T11:22:05.371Z,998.28
2016-03-09T11:23:05.342Z,998.31
2016-03-09T11:24:05.345Z,998.25
2016-03-09T11:25:05.301Z,998.36
2016-03-09T11:26:05.273Z,998.28
2016-03-09T11:27:05.259Z,998.24
2016-03-09T11:28:05.215Z,998.24
2016-03-09T11:29:05.202Z,998.25
2016-03-09T11:30:05.174Z,998.25
2016-03-09T11:31:05.161Z,998.32
2016-03-09T11:32:05.132Z,998.16
2016-03-09T11:33:05.104Z,998.2
2016-03-09T11:34:05.075Z,998.2
2016-03-09T11:35:05.062Z,998.21
2016-03-09T11:36:05.034Z,998.2
2016-03-09T11:37:05.006Z,998.22
2016-03-09T11:38:04.992Z,998.24
2016-03-09T11:39:04.978Z,998.12
2016-03-09T11:40:04.936Z,998.18
2016-03-09T11:41:04.906Z,998.15
2016-03-09T11:42:04.894Z,998.22
2016-03-09T11:43:04.865Z,998.24
2016-03-09T11:44:04.852Z,998.16
2016-03-09T11:45:04.824Z,998.14
2016-03-09T11:46:04.794Z,998.16
2016-03-09T11:47:04.767Z,998.14
2016-03-09T11:48:04.753Z,998.17
2016-03-09T11:49:04.725Z,998.15
2016-03-09T11:50:04.696Z,998.21
2016-03-09T11:51:04.793Z,998.17
2016-03-09T11:52:04.655Z,998.14
2016-03-09T11:53:04.641Z,998.16
2016-03-09T11:54:04.614Z,998.18
2016-03-09T11:55:04.585Z,998.12
2016-03-09T11:56:04.557Z,998.05
2016-03-09T11:57:04.543Z,997.99
2016-03-09T11:58:04.515Z,997.99
2016-03-09T11:59:04.486Z,997.98
2016-03-09T12:00:04.473Z,998
2016-03-09T12:01:04.444Z,998
2016-03-09T12:02:04.416Z,997.96
2016-03-09T12:03:04.403Z,997.96
2016-03-09T12:04:04.375Z,998.01
2016-03-09T12:05:04.346Z,998.1
2016-03-09T12:06:04.333Z,998.12
2016-03-09T12:07:04.304Z,998.08
2016-03-09T12:08:04.276Z,998.05
2016-03-09T12:09:04.264Z,998.08
2016-03-09T12:10:04.234Z,998.08
2016-03-09T12:11:04.205Z,997.95
2016-03-09T12:12:04.396Z,998.09
2016-03-09T12:13:04.164Z,998.07
2016-03-09T12:14:04.136Z,998.05
2016-03-09T12:15:04.123Z,998.2
2016-03-09T12:16:04.094Z,998.09
2016-03-09T12:17:04.066Z,998.11
2016-03-09T12:18:04.053Z,998.1